Time;durP1;ratioP1;P1;durP2;ratioP2;P2;SDS_P1;SDS_P2;PMS_P1;PMS_P2;Temp;Humidity;BMP_temperature;BMP_pressure;BME280_temperature;BME280_humidity;BME280_pressure;Samples;Min_cycle;Max_cycle;Signal;HPM_P1;HPM_P2
2022/09/19 00:01:23;;;;;;;0.60;0.60;;;10.00;99.90;;;;;;4421254;32;20143;-67
2022/09/19 00:03:55;;;;;;;0.50;0.50;;;10.00;99.90;;;;;;4417847;32;20158;-67
2022/09/19 00:06:22;;;;;;;0.52;0.50;;;10.00;99.90;;;;;;4423667;32;20745;-67
2022/09/19 00:08:49;;;;;;;0.90;0.50;;;9.90;99.90;;;;;;4422379;32;20101;-67
2022/09/19 00:11:17;;;;;;;0.45;0.45;;;9.80;99.90;;;;;;4422248;32;20754;-67
2022/09/19 00:13:45;;;;;;;0.30;0.30;;;9.80;99.90;;;;;;4422009;32;20072;-67
2022/09/19 00:16:12;;;;;;;0.30;0.30;;;9.80;99.90;;;;;;4422997;32;20433;-67
2022/09/19 00:18:38;;;;;;;0.30;0.30;;;9.80;99.90;;;;;;4422921;32;20101;-67
2022/09/19 00:21:03;;;;;;;0.30;0.30;;;9.80;99.90;;;;;;4422628;32;20108;-67
2022/09/19 00:25:00;;;;;;;0.30;0.30;;;9.70;99.90;;;;;;4420903;32;20126;-67
2022/09/19 00:26:19;;;;;;;0.22;0.22;;;9.70;99.90;;;;;;4407915;32;20093;-67
2022/09/19 00:28:45;;;;;;;0.40;0.40;;;9.60;99.90;;;;;;4420666;32;20128;-67
2022/09/19 00:31:17;;;;;;;0.57;0.57;;;9.70;99.90;;;;;;4421055;32;20113;-67
2022/09/19 00:33:44;;;;;;;0.20;0.20;;;9.60;99.90;;;;;;4421375;32;20081;-67
2022/09/19 00:36:10;;;;;;;0.37;0.37;;;9.60;99.90;;;;;;4422791;32;20517;-66
2022/09/19 00:38:36;;;;;;;1.85;0.40;;;9.70;99.90;;;;;;4421503;32;20060;-66
2022/09/19 00:41:01;;;;;;;0.50;0.50;;;9.70;99.90;;;;;;4422423;32;20080;-67
2022/09/19 00:43:44;;;;;;;0.20;0.20;;;9.80;99.90;;;;;;4422511;32;20086;-66
2022/09/19 00:46:10;;;;;;;0.32;0.32;;;9.80;99.90;;;;;;4405789;32;20504;-68
2022/09/19 00:48:35;;;;;;;0.30;0.30;;;9.90;99.90;;;;;;4421821;32;20116;-67
2022/09/19 00:51:04;;;;;;;0.50;0.50;;;9.80;99.90;;;;;;4423472;32;20086;-66
2022/09/19 00:53:30;;;;;;;0.47;0.47;;;9.80;99.90;;;;;;4420383;32;20100;-66
2022/09/19 00:55:57;;;;;;;0.60;0.60;;;9.80;99.90;;;;;;4423728;32;20077;-66
2022/09/19 00:58:28;;;;;;;0.30;0.30;;;9.90;99.90;;;;;;4420908;32;20073;-65
2022/09/19 01:00:57;;;;;;;0.30;0.30;;;9.90;99.90;;;;;;4420371;32;20089;-66
2022/09/19 01:03:25;;;;;;;0.30;0.30;;;9.90;99.90;;;;;;4421014;32;20120;-67
2022/09/19 01:06:18;;;;;;;0.40;0.40;;;9.80;99.90;;;;;;4419739;32;20069;-66
2022/09/19 01:08:52;;;;;;;0.30;0.30;;;9.80;99.90;;;;;;4406755;32;20061;-67
2022/09/19 01:11:37;;;;;;;0.37;0.37;;;9.80;99.90;;;;;;4420041;32;20094;-66
2022/09/19 01:14:15;;;;;;;0.37;0.37;;;9.90;99.90;;;;;;4422293;32;20147;-67
2022/09/19 01:16:50;;;;;;;0.30;0.30;;;9.80;99.90;;;;;;4422395;32;20623;-67
2022/09/19 01:19:55;;;;;;;0.43;0.43;;;9.80;99.90;;;;;;4421024;32;20070;-67
2022/09/19 01:22:48;;;;;;;0.70;0.70;;;9.90;99.90;;;;;;4407933;32;20805;-67
2022/09/19 01:25:23;;;;;;;0.25;0.25;;;9.90;99.90;;;;;;4418477;32;20096;-67
2022/09/19 01:28:08;;;;;;;0.50;0.50;;;9.90;99.90;;;;;;4419914;32;20132;-67
2022/09/19 01:30:40;;;;;;;0.40;0.40;;;10.00;99.90;;;;;;4420020;32;20109;-67
2022/09/19 01:33:17;;;;;;;0.40;0.40;;;10.00;99.90;;;;;;4421108;32;20750;-67
2022/09/19 01:35:46;;;;;;;0.30;0.30;;;10.00;99.90;;;;;;4418698;32;20093;-67
2022/09/19 01:38:21;;;;;;;0.50;0.50;;;10.00;99.90;;;;;;4418411;32;20089;-67
2022/09/19 01:40:48;;;;;;;2.30;1.33;;;10.00;99.90;;;;;;4421488;32;20124;-67
2022/09/19 01:43:16;;;;;;;0.25;0.25;;;10.00;99.90;;;;;;4418376;32;20452;-67
2022/09/19 01:45:42;;;;;;;0.30;0.30;;;10.00;99.90;;;;;;4419048;32;20085;-66
2022/09/19 01:48:24;;;;;;;0.50;0.50;;;10.00;99.90;;;;;;4418378;32;20060;-66
2022/09/19 01:51:04;;;;;;;0.20;0.20;;;10.00;99.90;;;;;;4421006;32;20101;-67
2022/09/19 01:53:49;;;;;;;2.83;1.12;;;9.90;99.90;;;;;;4418543;32;20098;-67
2022/09/19 01:56:28;;;;;;;2.45;0.55;;;10.00;99.90;;;;;;4420248;32;20436;-67
2022/09/19 01:59:07;;;;;;;0.22;0.22;;;9.90;99.90;;;;;;4419687;32;20081;-67
2022/09/19 02:01:50;;;;;;;0.35;0.35;;;9.90;99.90;;;;;;4422364;32;20136;-67
2022/09/19 02:04:23;;;;;;;0.30;0.30;;;9.90;99.90;;;;;;4418561;32;20571;-67
2022/09/19 02:06:55;;;;;;;0.30;0.30;;;9.90;99.90;;;;;;4421265;32;20085;-66
2022/09/19 02:09:36;;;;;;;0.30;0.30;;;9.90;99.90;;;;;;4418962;32;20092;-66
2022/09/19 02:12:03;;;;;;;0.32;0.32;;;9.90;99.90;;;;;;4420220;32;20085;-66
2022/09/19 02:14:33;;;;;;;3.25;0.45;;;9.90;99.90;;;;;;4420111;32;20413;-66
2022/09/19 02:17:06;;;;;;;0.30;0.30;;;10.00;99.90;;;;;;4420135;32;20573;-66
2022/09/19 02:19:36;;;;;;;1.62;0.50;;;10.00;99.90;;;;;;4418236;32;20058;-67
2022/09/19 02:22:05;;;;;;;1.60;1.12;;;10.00;99.90;;;;;;4420204;32;20084;-67
2022/09/19 02:24:35;;;;;;;0.55;0.52;;;10.00;99.90;;;;;;4418450;32;20533;-66
2022/09/19 02:27:09;;;;;;;5.07;1.33;;;10.00;99.90;;;;;;4421225;32;20133;-66
2022/09/19 02:29:40;;;;;;;2.35;0.85;;;10.00;99.90;;;;;;4419517;32;20085;-66
2022/09/19 02:32:07;;;;;;;0.50;0.50;;;10.00;99.90;;;;;;4419264;32;20089;-66
2022/09/19 02:34:34;;;;;;;0.40;0.40;;;10.00;99.90;;;;;;4418667;32;20125;-66
2022/09/19 02:37:07;;;;;;;0.30;0.30;;;10.00;99.90;;;;;;4419851;32;20585;-66
2022/09/19 02:39:46;;;;;;;0.37;0.37;;;10.00;99.90;;;;;;4420006;32;20074;-66
2022/09/19 02:42:34;;;;;;;0.22;0.22;;;10.00;99.90;;;;;;4419893;32;20061;-66
2022/09/19 02:45:36;;;;;;;0.30;0.30;;;10.00;99.90;;;;;;4409271;32;20127;-67
2022/09/19 02:48:09;;;;;;;0.30;0.30;;;10.00;99.90;;;;;;4406306;32;20564;-67
2022/09/19 02:50:43;;;;;;;0.37;0.37;;;10.00;99.90;;;;;;4423433;32;20082;-67
2022/09/19 02:53:13;;;;;;;0.40;0.40;;;10.00;99.90;;;;;;4423915;32;20089;-67
2022/09/19 02:55:47;;;;;;;3.55;1.37;;;10.00;99.90;;;;;;4424410;32;20065;-67
2022/09/19 02:58:16;;;;;;;0.40;0.40;;;10.00;99.90;;;;;;4422729;32;20105;-66
2022/09/19 03:00:46;;;;;;;7.07;1.67;;;10.10;99.90;;;;;;4423264;32;20082;-67
2022/09/19 03:04:19;;;;;;;0.40;0.40;;;10.20;99.90;;;;;;4423817;32;20069;-67
2022/09/19 03:06:06;;;;;;;0.52;0.52;;;10.20;99.90;;;;;;4411493;32;20077;-67
2022/09/19 03:08:36;;;;;;;0.30;0.30;;;10.20;99.90;;;;;;4419888;32;20504;-67
2022/09/19 03:11:07;;;;;;;0.30;0.30;;;10.20;99.90;;;;;;4425153;32;20060;-67
2022/09/19 03:13:36;;;;;;;0.30;0.30;;;10.20;99.90;;;;;;4422133;32;20507;-66
2022/09/19 03:16:07;;;;;;;0.45;0.45;;;10.20;99.90;;;;;;4422350;32;20081;-67
2022/09/19 03:18:34;;;;;;;0.75;0.50;;;10.10;99.90;;;;;;4422045;32;20074;-67
2022/09/19 03:21:03;;;;;;;0.40;0.40;;;10.00;99.90;;;;;;4421448;32;20114;-66
2022/09/19 03:23:37;;;;;;;0.60;0.45;;;10.10;99.90;;;;;;4422123;32;20133;-67
2022/09/19 03:26:04;;;;;;;0.30;0.30;;;10.10;99.90;;;;;;4423161;32;20069;-66
2022/09/19 03:28:30;;;;;;;0.30;0.30;;;10.20;99.90;;;;;;4422426;32;20081;-66
2022/09/19 03:30:59;;;;;;;0.40;0.40;;;10.20;99.90;;;;;;4422170;32;20104;-66
2022/09/19 03:33:26;;;;;;;0.75;0.75;;;10.10;99.90;;;;;;4421690;32;20097;-67
2022/09/19 03:35:52;;;;;;;0.30;0.30;;;10.10;99.90;;;;;;4423807;32;20061;-67
2022/09/19 03:38:18;;;;;;;0.37;0.37;;;10.10;99.90;;;;;;4422239;32;20105;-67
2022/09/19 03:40:43;;;;;;;5.05;0.93;;;10.10;99.90;;;;;;4422464;32;20057;-66
2022/09/19 03:43:09;;;;;;;0.57;0.57;;;10.10;99.90;;;;;;4423032;32;20134;-67
2022/09/19 03:45:34;;;;;;;0.30;0.30;;;10.10;99.90;;;;;;4424089;32;20105;-67
2022/09/19 03:48:01;;;;;;;0.30;0.30;;;10.10;99.90;;;;;;4421249;32;20065;-67
2022/09/19 03:50:26;;;;;;;0.30;0.30;;;10.10;99.90;;;;;;4423565;32;20085;-66
2022/09/19 03:52:51;;;;;;;0.40;0.40;;;10.20;99.90;;;;;;4423677;32;20537;-66
2022/09/19 03:55:17;;;;;;;1.00;0.70;;;10.20;99.90;;;;;;4423017;32;20140;-67
2022/09/19 03:57:43;;;;;;;2.42;1.05;;;10.20;99.90;;;;;;4421479;32;20937;-67
2022/09/19 04:00:09;;;;;;;0.47;0.47;;;10.20;99.90;;;;;;4421588;32;20065;-66
2022/09/19 04:02:35;;;;;;;0.75;0.75;;;10.10;99.90;;;;;;4422306;32;20140;-66
2022/09/19 04:05:02;;;;;;;0.60;0.60;;;10.20;99.90;;;;;;4422583;32;20078;-67
2022/09/19 04:07:27;;;;;;;4.07;0.68;;;10.30;99.90;;;;;;4422784;32;20124;-67
2022/09/19 04:09:54;;;;;;;1.65;0.62;;;10.20;99.90;;;;;;4421776;32;20097;-67
2022/09/19 04:12:21;;;;;;;0.28;0.28;;;10.30;99.90;;;;;;4419528;32;20093;-67
2022/09/19 04:14:46;;;;;;;0.40;0.40;;;10.30;99.90;;;;;;4420995;32;20085;-66
2022/09/19 04:17:13;;;;;;;0.30;0.30;;;10.40;99.90;;;;;;4421967;32;20061;-66
2022/09/19 04:19:39;;;;;;;0.90;0.82;;;10.30;99.90;;;;;;4416684;32;20077;-67
2022/09/19 04:22:04;;;;;;;0.30;0.30;;;10.30;99.90;;;;;;4413444;32;20556;-67
2022/09/19 04:24:30;;;;;;;1.85;0.80;;;10.40;99.90;;;;;;4416911;32;20442;-65
2022/09/19 04:26:59;;;;;;;0.40;0.40;;;10.40;99.90;;;;;;4419747;32;20058;-67
2022/09/19 04:29:26;;;;;;;0.37;0.37;;;10.40;99.90;;;;;;4418428;32;20128;-67
2022/09/19 04:31:52;;;;;;;2.67;1.05;;;10.40;99.90;;;;;;4425187;32;20066;-67
2022/09/19 04:34:17;;;;;;;0.30;0.30;;;10.40;99.90;;;;;;4420231;32;20589;-67
2022/09/19 04:36:43;;;;;;;0.50;0.50;;;10.40;99.90;;;;;;4421044;32;20101;-66
2022/09/19 04:39:10;;;;;;;0.73;0.43;;;10.40;99.90;;;;;;4421439;32;20065;-67
2022/09/19 04:41:37;;;;;;;0.40;0.40;;;10.40;99.90;;;;;;4421726;32;20691;-66
2022/09/19 04:44:05;;;;;;;0.40;0.40;;;10.50;99.90;;;;;;4420815;32;20074;-66
2022/09/19 04:46:32;;;;;;;0.40;0.40;;;10.50;99.90;;;;;;4419597;32;20101;-66
2022/09/19 04:48:59;;;;;;;0.50;0.50;;;10.40;99.90;;;;;;4422394;32;20135;-67
2022/09/19 04:51:27;;;;;;;0.47;0.47;;;10.40;99.90;;;;;;4422453;32;20270;-66
2022/09/19 04:53:53;;;;;;;0.85;0.60;;;10.40;99.90;;;;;;4422061;32;20086;-66
2022/09/19 04:56:20;;;;;;;0.50;0.50;;;10.40;99.90;;;;;;4420233;32;20112;-67
2022/09/19 04:58:46;;;;;;;0.30;0.30;;;10.40;99.90;;;;;;4420266;32;21460;-67
2022/09/19 05:01:12;;;;;;;0.30;0.30;;;10.50;99.90;;;;;;4416602;32;20772;-66
2022/09/19 05:03:38;;;;;;;0.40;0.40;;;10.50;99.90;;;;;;4417101;32;20431;-67
2022/09/19 05:06:05;;;;;;;3.47;0.68;;;10.50;99.90;;;;;;4418708;32;20073;-66
2022/09/19 05:08:32;;;;;;;0.30;0.30;;;10.50;99.90;;;;;;4420912;32;20109;-67
2022/09/19 05:11:00;;;;;;;0.50;0.50;;;10.50;99.90;;;;;;4416687;32;20437;-67
2022/09/19 05:13:28;;;;;;;0.80;0.80;;;10.50;99.90;;;;;;4419508;32;20076;-66
2022/09/19 05:15:54;;;;;;;2.90;0.85;;;10.50;99.90;;;;;;4417173;32;20077;-67
2022/09/19 05:18:21;;;;;;;0.30;0.30;;;10.50;99.90;;;;;;4400564;32;20077;-67
2022/09/19 05:20:48;;;;;;;0.32;0.32;;;10.60;99.90;;;;;;4414281;32;20098;-67
2022/09/19 05:23:15;;;;;;;1.23;1.12;;;10.50;99.90;;;;;;4417187;32;20081;-66
2022/09/19 05:25:41;;;;;;;0.37;0.37;;;10.60;99.90;;;;;;4414295;32;20436;-66
2022/09/19 05:28:08;;;;;;;0.62;0.47;;;10.60;99.90;;;;;;4403617;32;20096;-67
2022/09/19 05:30:37;;;;;;;0.50;0.50;;;10.60;99.90;;;;;;4402885;32;20093;-67
2022/09/19 05:33:04;;;;;;;21.08;2.03;;;10.60;99.90;;;;;;4388777;32;21351;-68
2022/09/19 05:35:31;;;;;;;6.05;1.12;;;10.60;99.90;;;;;;4405916;32;20102;-66
2022/09/19 05:37:57;;;;;;;0.57;0.57;;;10.70;99.90;;;;;;4408278;32;20101;-66
2022/09/19 05:40:27;;;;;;;0.32;0.32;;;10.70;99.90;;;;;;4413873;32;20077;-66
2022/09/19 05:43:00;;;;;;;0.30;0.30;;;10.70;99.90;;;;;;4414622;32;20568;-67
2022/09/19 05:45:27;;;;;;;0.20;0.20;;;10.80;99.90;;;;;;4408225;32;20514;-68
2022/09/19 05:47:59;;;;;;;0.35;0.35;;;10.80;99.90;;;;;;4412404;32;20572;-66
2022/09/19 05:50:24;;;;;;;0.40;0.40;;;10.90;99.90;;;;;;4403524;32;21726;-67
2022/09/19 05:53:52;;;;;;;0.62;0.62;;;10.90;99.90;;;;;;4394744;32;20213;-68
2022/09/19 05:55:38;;;;;;;0.30;0.30;;;10.90;99.90;;;;;;4375688;32;20081;-66
2022/09/19 05:58:06;;;;;;;0.35;0.35;;;10.90;99.90;;;;;;4375967;32;20061;-68
2022/09/19 06:00:31;;;;;;;0.40;0.40;;;11.00;99.90;;;;;;4373678;32;20097;-67
2022/09/19 06:03:00;;;;;;;0.40;0.40;;;11.00;99.90;;;;;;4378028;32;20501;-67
2022/09/19 06:05:27;;;;;;;0.30;0.30;;;10.90;99.90;;;;;;4383642;32;20081;-68
2022/09/19 06:07:56;;;;;;;0.45;0.45;;;10.90;99.90;;;;;;4392015;32;21613;-67
2022/09/19 06:10:23;;;;;;;0.30;0.30;;;11.00;99.90;;;;;;4387704;32;20105;-68
2022/09/19 06:12:49;;;;;;;1.62;0.73;;;11.00;99.90;;;;;;4398741;32;20931;-68
2022/09/19 06:15:16;;;;;;;0.40;0.40;;;11.00;99.90;;;;;;4396342;32;20102;-66
2022/09/19 06:17:41;;;;;;;0.52;0.52;;;11.00;99.90;;;;;;4390839;32;20065;-67
2022/09/19 06:20:08;;;;;;;0.50;0.50;;;11.10;99.90;;;;;;4382521;32;20097;-67
2022/09/19 06:22:34;;;;;;;0.37;0.37;;;11.10;99.90;;;;;;4391748;32;20077;-67
2022/09/19 06:25:00;;;;;;;0.80;0.75;;;11.10;99.90;;;;;;4387346;32;21123;-66
2022/09/19 06:27:27;;;;;;;0.60;0.60;;;11.10;99.90;;;;;;4388981;32;20093;-67
2022/09/19 06:29:53;;;;;;;0.40;0.40;;;11.10;99.90;;;;;;4394347;32;20520;-66
2022/09/19 06:32:19;;;;;;;0.40;0.40;;;11.20;99.90;;;;;;4391779;32;20098;-67
2022/09/19 06:34:44;;;;;;;2.75;1.05;;;11.20;99.90;;;;;;4387140;32;20691;-67
2022/09/19 06:37:11;;;;;;;0.30;0.30;;;11.20;99.90;;;;;;4384499;32;20164;-67
2022/09/19 06:39:37;;;;;;;2.85;1.05;;;11.30;99.90;;;;;;4389684;32;20366;-65
2022/09/19 06:42:03;;;;;;;0.40;0.40;;;11.30;99.90;;;;;;4388027;32;20131;-67
2022/09/19 06:44:29;;;;;;;0.30;0.30;;;11.30;99.90;;;;;;4383531;32;20113;-66
2022/09/19 06:46:54;;;;;;;0.43;0.43;;;11.30;99.90;;;;;;4391887;32;20376;-66
2022/09/19 06:49:20;;;;;;;0.30;0.30;;;11.40;99.90;;;;;;4385213;32;20132;-66
2022/09/19 06:51:45;;;;;;;0.30;0.30;;;11.40;99.90;;;;;;4397853;32;20080;-66
2022/09/19 06:54:11;;;;;;;0.40;0.40;;;11.50;99.90;;;;;;4389712;32;20897;-66
2022/09/19 06:56:36;;;;;;;0.50;0.50;;;11.50;99.90;;;;;;4386925;32;21151;-66
2022/09/19 06:59:02;;;;;;;6.60;0.95;;;11.60;99.90;;;;;;4388882;32;21026;-65
2022/09/19 07:01:27;;;;;;;0.40;0.40;;;11.60;99.90;;;;;;4389158;32;20106;-64
2022/09/19 07:03:53;;;;;;;0.40;0.40;;;11.70;99.90;;;;;;4388422;32;20089;-64
2022/09/19 07:06:19;;;;;;;0.22;0.22;;;11.60;99.90;;;;;;4387565;32;20061;-65
2022/09/19 07:08:45;;;;;;;0.28;0.28;;;11.70;99.90;;;;;;4384804;32;20101;-64
2022/09/19 07:11:11;;;;;;;0.20;0.20;;;11.70;99.90;;;;;;4376566;32;20546;-65
2022/09/19 07:13:36;;;;;;;0.40;0.40;;;11.80;99.90;;;;;;4395453;32;20105;-65
2022/09/19 07:16:03;;;;;;;0.37;0.37;;;11.80;99.90;;;;;;4389121;32;20174;-66
2022/09/19 07:18:29;;;;;;;0.40;0.40;;;11.80;99.90;;;;;;4390032;32;20568;-65
2022/09/19 07:20:55;;;;;;;0.50;0.50;;;11.90;99.90;;;;;;4391763;32;20098;-66
2022/09/19 07:23:20;;;;;;;2.92;0.37;;;11.90;99.90;;;;;;4400186;32;20460;-66
2022/09/19 07:25:46;;;;;;;1.65;0.90;;;12.00;99.90;;;;;;4401389;32;20077;-66
2022/09/19 07:28:14;;;;;;;0.40;0.40;;;12.10;99.90;;;;;;4404934;32;20105;-67
2022/09/19 07:30:43;;;;;;;0.30;0.30;;;12.10;99.90;;;;;;4373451;32;20086;-67
2022/09/19 07:33:10;;;;;;;0.85;0.50;;;12.10;99.90;;;;;;4367508;32;20748;-67
2022/09/19 07:35:37;;;;;;;0.30;0.30;;;12.10;99.90;;;;;;4393973;32;20105;-64
2022/09/19 07:38:04;;;;;;;0.40;0.40;;;12.20;99.90;;;;;;4408606;32;20098;-69
2022/09/19 07:40:30;;;;;;;0.30;0.30;;;12.20;99.90;;;;;;4414077;32;20093;-66
2022/09/19 07:43:04;;;;;;;0.28;0.28;;;12.20;99.90;;;;;;4408173;32;20098;-66
2022/09/19 07:45:34;;;;;;;1.20;0.70;;;12.30;99.90;;;;;;4407850;32;20065;-66
2022/09/19 07:48:00;;;;;;;2.65;0.60;;;12.30;99.90;;;;;;4390641;32;20141;-64
2022/09/19 07:50:25;;;;;;;0.80;0.70;;;12.40;99.90;;;;;;4385190;32;20350;-66
2022/09/19 07:53:08;;;;;;;0.40;0.40;;;12.50;99.90;;;;;;4383834;32;20115;-66
2022/09/19 07:55:36;;;;;;;0.30;0.30;;;12.50;99.90;;;;;;4375821;32;20468;-66
2022/09/19 07:58:03;;;;;;;0.37;0.37;;;12.50;99.90;;;;;;4379096;32;20086;-67
2022/09/19 08:00:30;;;;;;;0.30;0.30;;;12.50;99.90;;;;;;4368767;32;20252;-67
2022/09/19 08:02:59;;;;;;;0.37;0.37;;;12.60;99.90;;;;;;4394660;32;21689;-66
2022/09/19 08:05:27;;;;;;;0.32;0.32;;;12.60;99.90;;;;;;4368861;32;20140;-66
2022/09/19 08:07:53;;;;;;;0.40;0.40;;;12.60;99.90;;;;;;4380256;32;20089;-64
2022/09/19 08:10:20;;;;;;;0.52;0.52;;;12.70;99.90;;;;;;4392696;32;20371;-65
2022/09/19 08:12:47;;;;;;;0.40;0.40;;;12.70;99.90;;;;;;4392365;32;21005;-66
2022/09/19 08:15:15;;;;;;;0.30;0.30;;;12.70;99.90;;;;;;4387726;32;20154;-67
2022/09/19 08:17:42;;;;;;;0.50;0.50;;;12.80;99.90;;;;;;4394649;32;20110;-66
2022/09/19 08:20:07;;;;;;;0.30;0.30;;;12.90;99.90;;;;;;4393347;32;20109;-66
2022/09/19 08:22:34;;;;;;;0.30;0.30;;;12.90;99.90;;;;;;4396883;32;20475;-65
2022/09/19 08:25:00;;;;;;;0.52;0.50;;;13.00;99.90;;;;;;4391129;32;21088;-67
2022/09/19 08:27:26;;;;;;;0.25;0.25;;;13.00;99.90;;;;;;4392995;32;20101;-65
2022/09/19 08:29:52;;;;;;;0.30;0.30;;;13.00;99.90;;;;;;4398049;32;20789;-66
2022/09/19 08:32:17;;;;;;;0.55;0.55;;;12.90;99.90;;;;;;4380073;32;102619;-66
2022/09/19 08:34:43;;;;;;;0.50;0.50;;;13.00;99.90;;;;;;4379680;32;20157;-66
2022/09/19 08:37:08;;;;;;;0.65;0.50;;;13.10;99.90;;;;;;4387064;32;20126;-64
2022/09/19 08:39:34;;;;;;;0.50;0.50;;;13.10;99.90;;;;;;4385676;32;20101;-65
2022/09/19 08:42:15;;;;;;;0.65;0.65;;;13.20;99.90;;;;;;4389646;32;20113;-66
2022/09/19 08:45:07;;;;;;;0.40;0.40;;;13.30;99.90;;;;;;4395683;32;20262;-65
2022/09/19 08:47:35;;;;;;;0.30;0.30;;;13.40;99.90;;;;;;4389440;32;20165;-65
2022/09/19 08:50:10;;;;;;;0.40;0.40;;;13.40;99.90;;;;;;4391882;32;20101;-65
2022/09/19 08:52:44;;;;;;;0.50;0.50;;;13.40;99.90;;;;;;4379168;32;20122;-66
2022/09/19 08:55:16;;;;;;;0.40;0.40;;;13.40;99.90;;;;;;4389999;32;20093;-63
2022/09/19 08:57:52;;;;;;;0.40;0.40;;;13.40;99.90;;;;;;4389600;32;20109;-66
2022/09/19 09:00:20;;;;;;;0.30;0.30;;;13.40;99.90;;;;;;4395204;32;20074;-65
2022/09/19 09:02:51;;;;;;;0.20;0.20;;;13.30;99.90;;;;;;4386905;32;20618;-66
2022/09/19 09:05:24;;;;;;;0.40;0.40;;;13.50;99.90;;;;;;4400229;32;20112;-65
2022/09/19 09:07:58;;;;;;;0.40;0.40;;;13.70;99.90;;;;;;4399710;32;20248;-65
2022/09/19 09:10:39;;;;;;;0.30;0.30;;;13.90;99.90;;;;;;4379551;32;20085;-65
2022/09/19 09:13:45;;;;;;;0.45;0.45;;;14.00;99.90;;;;;;4399929;32;20081;-65
2022/09/19 09:16:23;;;;;;;0.30;0.30;;;14.10;99.90;;;;;;4378140;32;20584;-65
2022/09/19 09:19:06;;;;;;;0.37;0.37;;;14.20;99.90;;;;;;4393080;32;20129;-66
2022/09/19 09:21:59;;;;;;;0.30;0.30;;;14.30;99.90;;;;;;4366874;32;20134;-66
2022/09/19 09:24:44;;;;;;;0.40;0.40;;;14.60;99.90;;;;;;4361508;32;20196;-68
2022/09/19 09:27:14;;;;;;;0.37;0.37;;;14.70;99.90;;;;;;4365776;32;20108;-64
2022/09/19 09:29:45;;;;;;;0.40;0.40;;;14.60;99.90;;;;;;4389776;32;20092;-66
2022/09/19 09:32:23;;;;;;;0.62;0.62;;;14.50;99.90;;;;;;4365829;32;20449;-66
2022/09/19 09:34:56;;;;;;;0.30;0.30;;;14.60;99.90;;;;;;4365839;32;20375;-65
2022/09/19 09:37:43;;;;;;;9.63;0.70;;;14.60;99.90;;;;;;4377198;32;21554;-66
2022/09/19 09:41:44;;;;;;;0.40;0.40;;;14.60;99.90;;;;;;4378336;32;20093;-66
2022/09/19 09:43:05;;;;;;;0.40;0.40;;;14.60;99.90;;;;;;4368282;32;20100;-66
2022/09/19 09:45:36;;;;;;;14.77;0.50;;;14.80;99.90;;;;;;4379333;32;20224;-66
2022/09/19 09:48:14;;;;;;;0.52;0.50;;;14.90;99.90;;;;;;4377066;32;20089;-66
2022/09/19 09:51:01;;;;;;;0.30;0.30;;;15.00;99.90;;;;;;4364516;32;20675;-66
2022/09/19 09:53:49;;;;;;;1.20;0.60;;;15.10;99.90;;;;;;4370505;32;21285;-67
2022/09/19 09:56:29;;;;;;;0.30;0.30;;;15.20;99.90;;;;;;4382229;32;22145;-67
2022/09/19 10:04:03;;;;;;;0.40;0.40;;;15.20;99.90;;;;;;4358598;32;20487;-67
2022/09/19 10:05:59;;;;;;;0.30;0.30;;;15.40;99.90;;;;;;4370542;32;20227;-69
2022/09/19 10:08:43;;;;;;;10.48;0.55;;;15.50;99.90;;;;;;4372971;32;20082;-66
2022/09/19 10:11:14;;;;;;;0.30;0.30;;;15.50;99.90;;;;;;4387152;32;20411;-65
2022/09/19 10:13:48;;;;;;;0.75;0.75;;;15.40;99.90;;;;;;4381411;32;20223;-66
2022/09/19 10:16:17;;;;;;;0.30;0.30;;;15.30;99.90;;;;;;4383463;32;20236;-66
2022/09/19 10:18:47;;;;;;;0.40;0.40;;;15.30;99.90;;;;;;4373859;32;20113;-67
2022/09/19 10:21:13;;;;;;;1.48;0.95;;;15.50;99.90;;;;;;4377794;32;20200;-67
2022/09/19 10:23:45;;;;;;;0.40;0.40;;;15.60;99.90;;;;;;4380813;32;20117;-66
2022/09/19 10:26:15;;;;;;;0.30;0.30;;;15.50;99.90;;;;;;4395402;32;20642;-65
2022/09/19 10:28:49;;;;;;;0.30;0.30;;;15.50;99.90;;;;;;4401547;32;21407;-65
2022/09/19 10:31:25;;;;;;;0.30;0.30;;;15.40;99.90;;;;;;4391984;32;20197;-66
2022/09/19 10:33:52;;;;;;;0.45;0.45;;;15.10;99.90;;;;;;4379246;32;20105;-65
2022/09/19 10:36:21;;;;;;;5.15;0.85;;;14.70;99.90;;;;;;4390201;32;21318;-67
2022/09/19 10:38:50;;;;;;;0.30;0.30;;;14.40;99.90;;;;;;4374427;32;20096;-66
2022/09/19 10:41:20;;;;;;;0.20;0.20;;;14.00;99.90;;;;;;4373147;32;20078;-67
2022/09/19 10:43:49;;;;;;;0.30;0.30;;;13.60;99.90;;;;;;4392573;32;20235;-66
2022/09/19 10:46:19;;;;;;;0.30;0.30;;;13.40;99.90;;;;;;4393501;32;20081;-66
2022/09/19 10:48:52;;;;;;;0.95;0.47;;;13.20;99.90;;;;;;4384487;32;20211;-66
2022/09/19 10:51:18;;;;;;;0.40;0.40;;;13.10;99.90;;;;;;4365151;32;20411;-66
2022/09/19 10:53:51;;;;;;;0.30;0.30;;;13.00;99.90;;;;;;4372581;32;20118;-67
2022/09/19 10:56:24;;;;;;;0.30;0.30;;;12.90;99.90;;;;;;4365710;32;20950;-66
2022/09/19 10:59:05;;;;;;;0.30;0.30;;;12.90;99.90;;;;;;4366233;32;20081;-67
2022/09/19 11:01:31;;;;;;;0.40;0.40;;;12.90;99.90;;;;;;4375842;32;20105;-67
2022/09/19 11:04:03;;;;;;;0.30;0.30;;;12.90;99.90;;;;;;4394771;32;22293;-68
2022/09/19 11:06:30;;;;;;;0.20;0.20;;;13.00;99.90;;;;;;4389371;32;20106;-67
2022/09/19 11:08:56;;;;;;;0.32;0.32;;;13.10;99.90;;;;;;4395115;32;20101;-68
2022/09/19 11:11:30;;;;;;;0.30;0.30;;;13.20;99.90;;;;;;4385103;32;20086;-67
2022/09/19 11:14:29;;;;;;;0.70;0.70;;;13.40;99.90;;;;;;4393560;32;20117;-67
2022/09/19 11:17:15;;;;;;;0.30;0.30;;;13.40;99.90;;;;;;4382975;32;20125;-67
2022/09/19 11:20:18;;;;;;;0.30;0.30;;;13.50;99.90;;;;;;4379991;32;20452;-67
2022/09/19 11:23:13;;;;;;;0.22;0.22;;;13.70;99.90;;;;;;4364700;32;20235;-66
2022/09/19 11:25:51;;;;;;;0.30;0.30;;;14.10;99.90;;;;;;4393529;32;20114;-67
2022/09/19 11:28:33;;;;;;;0.30;0.30;;;14.40;99.90;;;;;;4388633;32;21036;-66
2022/09/19 11:31:05;;;;;;;0.40;0.40;;;14.40;99.90;;;;;;4385898;32;20130;-67
2022/09/19 11:33:43;;;;;;;0.45;0.45;;;14.60;99.90;;;;;;4385451;32;20273;-68
2022/09/19 11:36:36;;;;;;;0.40;0.40;;;14.80;99.90;;;;;;4385740;32;25034;-66
2022/09/19 11:39:04;;;;;;;0.60;0.60;;;14.90;99.90;;;;;;4379609;32;20094;-67
2022/09/19 11:41:52;;;;;;;0.32;0.32;;;15.20;99.90;;;;;;4398318;32;20101;-67
2022/09/19 11:44:34;;;;;;;4.75;0.55;;;16.00;99.90;;;;;;4372290;32;20338;-67
2022/09/19 11:47:19;;;;;;;0.40;0.40;;;17.10;99.90;;;;;;4369970;32;20323;-66
2022/09/19 11:50:18;;;;;;;0.40;0.40;;;17.70;99.90;;;;;;4366817;32;20491;-66
2022/09/19 11:53:15;;;;;;;0.30;0.30;;;17.40;99.90;;;;;;4363853;32;20109;-68
2022/09/19 11:55:54;;;;;;;0.30;0.30;;;16.90;99.90;;;;;;4376983;32;20093;-69
2022/09/19 11:58:31;;;;;;;0.30;0.30;;;16.50;99.90;;;;;;4379396;32;20190;-67
2022/09/19 12:01:28;;;;;;;0.30;0.30;;;16.20;99.90;;;;;;4390539;32;20252;-65
2022/09/19 12:04:18;;;;;;;0.30;0.30;;;16.10;99.90;;;;;;4376667;32;20128;-67
2022/09/19 12:07:10;;;;;;;0.40;0.40;;;16.60;99.90;;;;;;4380056;32;20318;-67
2022/09/19 12:09:57;;;;;;;0.30;0.30;;;17.80;99.90;;;;;;4376924;32;21411;-67
2022/09/19 12:12:27;;;;;;;0.30;0.30;;;18.40;99.90;;;;;;4363382;32;20089;-67
2022/09/19 12:14:58;;;;;;;0.30;0.30;;;18.30;99.90;;;;;;4379792;32;21326;-67
2022/09/19 12:17:28;;;;;;;0.30;0.30;;;18.20;99.90;;;;;;4378935;32;20964;-68
2022/09/19 12:20:11;;;;;;;0.30;0.30;;;18.20;99.90;;;;;;4377108;32;20244;-67
2022/09/19 12:22:51;;;;;;;0.30;0.30;;;18.00;99.90;;;;;;4389893;32;21394;-67
2022/09/19 12:25:20;;;;;;;0.40;0.40;;;17.40;99.90;;;;;;4389592;32;20069;-65
2022/09/19 12:28:10;;;;;;;0.30;0.30;;;16.80;99.90;;;;;;4387357;32;20101;-67
2022/09/19 12:30:40;;;;;;;0.40;0.40;;;16.20;99.90;;;;;;4351498;32;20098;-67
2022/09/19 12:33:33;;;;;;;0.40;0.40;;;15.90;99.90;;;;;;4373018;32;20235;-68
2022/09/19 12:36:08;;;;;;;0.35;0.35;;;15.30;99.90;;;;;;4397068;32;20238;-67
2022/09/19 12:38:44;;;;;;;0.30;0.30;;;14.60;99.90;;;;;;4406087;32;20125;-67
2022/09/19 12:41:14;;;;;;;0.20;0.20;;;14.00;99.90;;;;;;4409849;32;20653;-67
2022/09/19 12:44:02;;;;;;;0.30;0.30;;;13.70;99.90;;;;;;4423012;32;20081;-67
2022/09/19 12:46:34;;;;;;;0.28;0.28;;;13.40;99.90;;;;;;4419497;32;20475;-65
2022/09/19 12:49:14;;;;;;;0.30;0.30;;;13.10;99.90;;;;;;4399077;32;20080;-65
2022/09/19 12:51:53;;;;;;;0.30;0.30;;;13.00;99.90;;;;;;4400751;32;20892;-66
2022/09/19 12:54:27;;;;;;;0.55;0.40;;;12.90;99.90;;;;;;4403394;32;20089;-66
2022/09/19 12:57:16;;;;;;;0.20;0.20;;;12.90;99.90;;;;;;4414916;32;20082;-66
2022/09/19 12:59:46;;;;;;;0.20;0.20;;;12.80;99.90;;;;;;4391429;32;20093;-65
2022/09/19 13:02:23;;;;;;;0.33;0.33;;;12.70;99.90;;;;;;4396558;32;20094;-66
2022/09/19 13:04:59;;;;;;;0.30;0.30;;;12.60;99.90;;;;;;4392115;32;20256;-66
2022/09/19 13:07:33;;;;;;;0.50;0.50;;;12.50;99.90;;;;;;4416474;32;20706;-66
2022/09/19 13:10:25;;;;;;;0.30;0.30;;;12.50;99.90;;;;;;4417805;32;20160;-66
2022/09/19 13:13:11;;;;;;;0.20;0.20;;;12.50;99.90;;;;;;4418639;32;20080;-65
2022/09/19 13:15:58;;;;;;;0.55;0.55;;;12.60;99.90;;;;;;4417308;32;20827;-67
2022/09/19 13:24:04;;;;;;;0.62;0.62;;;12.70;99.90;;;;;;4398457;32;20120;-66